Time;durP1;ratioP1;P1;durP2;ratioP2;P2;SDS_P1;SDS_P2;PMS_P1;PMS_P2;Temp;Humidity;BMP_temperature;BMP_pressure;BME280_temperature;BME280_humidity;BME280_pressure;Samples;Min_cycle;Max_cycle;Signal;HPM_P1;HPM_P2
2023/07/27 00:00:51;;;;;;;4.28;3.25;;;16.30;94.80;;;;;;5092523;28;20020;-52
2023/07/27 00:03:37;;;;;;;5.72;3.20;;;16.20;94.80;;;;;;5085167;28;20040;-53
2023/07/27 00:06:23;;;;;;;4.65;3.42;;;16.20;95.20;;;;;;5072334;28;20050;-50
2023/07/27 00:09:09;;;;;;;4.28;3.33;;;16.20;95.10;;;;;;5074349;28;20457;-49
2023/07/27 00:11:55;;;;;;;4.32;3.60;;;16.30;95.10;;;;;;5074265;28;20405;-49
2023/07/27 00:14:42;;;;;;;4.70;3.40;;;16.40;94.80;;;;;;5073906;28;20052;-47
2023/07/27 00:17:27;;;;;;;3.90;3.20;;;16.30;95.30;;;;;;5067114;28;20115;-50
2023/07/27 00:20:13;;;;;;;4.85;3.03;;;16.40;95.40;;;;;;5075264;28;20074;-53
2023/07/27 00:22:59;;;;;;;4.35;3.38;;;16.40;95.10;;;;;;5074122;28;20585;-51
2023/07/27 00:25:45;;;;;;;4.43;3.08;;;16.40;95.10;;;;;;5074209;28;20029;-47
2023/07/27 00:28:31;;;;;;;4.45;3.30;;;16.40;94.90;;;;;;5061851;28;20036;-49
2023/07/27 00:31:17;;;;;;;4.32;3.75;;;16.40;94.90;;;;;;5074291;28;20060;-52
2023/07/27 00:34:03;;;;;;;6.90;3.72;;;16.40;95.00;;;;;;5086028;28;20060;-51
2023/07/27 00:36:49;;;;;;;4.97;3.55;;;16.40;94.80;;;;;;5073690;28;20029;-46
2023/07/27 00:39:35;;;;;;;4.80;3.75;;;16.30;95.10;;;;;;5072602;28;20417;-47
2023/07/27 00:42:21;;;;;;;5.78;4.28;;;16.20;95.30;;;;;;5074644;28;20093;-46
2023/07/27 00:45:08;;;;;;;4.97;3.63;;;16.10;95.60;;;;;;5087258;28;20094;-53
2023/07/27 00:47:54;;;;;;;4.72;4.22;;;16.00;96.00;;;;;;5057984;28;20029;-48
2023/07/27 00:50:40;;;;;;;4.68;3.67;;;15.80;96.30;;;;;;5057901;28;20036;-48
2023/07/27 00:53:26;;;;;;;6.20;4.10;;;15.80;96.50;;;;;;5072867;28;20032;-48
2023/07/27 00:56:12;;;;;;;5.40;3.75;;;15.70;96.60;;;;;;5073402;28;20033;-48
2023/07/27 00:59:02;;;;;;;6.18;4.30;;;15.50;97.10;;;;;;5062979;28;20028;-50
2023/07/27 01:01:48;;;;;;;5.60;4.28;;;15.50;97.00;;;;;;5074316;28;20060;-49
2023/07/27 01:04:35;;;;;;;6.85;4.18;;;15.50;97.10;;;;;;5073814;28;20449;-51
2023/07/27 01:07:21;;;;;;;5.88;4.03;;;15.40;97.20;;;;;;5072577;28;20029;-51
2023/07/27 01:10:07;;;;;;;6.60;4.32;;;15.40;97.30;;;;;;5072050;28;20511;-48
2023/07/27 01:12:58;;;;;;;5.50;4.30;;;15.40;97.60;;;;;;5080311;28;20062;-51
2023/07/27 01:15:52;;;;;;;5.10;4.15;;;15.30;97.40;;;;;;5053183;28;20405;-50
2023/07/27 01:18:55;;;;;;;5.57;4.10;;;15.40;97.30;;;;;;5053825;28;20082;-47
2023/07/27 01:21:46;;;;;;;4.90;4.32;;;15.40;97.40;;;;;;5052946;28;20284;-47
2023/07/27 01:25:05;;;;;;;6.07;4.40;;;15.40;97.40;;;;;;5060430;28;20029;-45
2023/07/27 01:28:19;;;;;;;5.13;4.55;;;15.40;97.50;;;;;;5038520;28;20033;-47
2023/07/27 01:31:20;;;;;;;6.07;4.80;;;15.40;97.70;;;;;;5055579;28;20390;-49
2023/07/27 01:34:20;;;;;;;5.57;4.97;;;15.50;97.60;;;;;;5058444;28;20511;-49
2023/07/27 01:37:09;;;;;;;7.43;4.97;;;15.40;97.50;;;;;;5051362;28;20033;-49
2023/07/27 01:39:59;;;;;;;5.55;4.30;;;15.30;98.10;;;;;;5056404;28;20077;-48
2023/07/27 01:42:46;;;;;;;5.63;4.57;;;15.40;98.10;;;;;;5072861;28;20033;-51
2023/07/27 01:45:32;;;;;;;7.28;4.65;;;15.40;98.30;;;;;;5072870;28;20029;-48
2023/07/27 01:48:19;;;;;;;4.95;4.32;;;15.50;98.00;;;;;;5072551;28;20481;-50
2023/07/27 01:51:08;;;;;;;6.38;4.40;;;15.50;97.60;;;;;;5071535;28;20063;-49
2023/07/27 01:53:55;;;;;;;6.13;4.93;;;15.40;97.40;;;;;;5070619;28;20115;-47
2023/07/27 01:56:42;;;;;;;7.15;4.80;;;15.30;97.70;;;;;;5063737;28;20024;-45
2023/07/27 01:59:29;;;;;;;7.03;4.88;;;15.20;97.70;;;;;;5046977;28;20409;-47
2023/07/27 02:02:15;;;;;;;4.80;4.30;;;15.20;97.90;;;;;;5053604;28;20028;-50
2023/07/27 02:05:01;;;;;;;5.22;4.70;;;15.10;98.10;;;;;;5038384;28;20025;-46
2023/07/27 02:07:48;;;;;;;8.05;4.82;;;15.00;98.20;;;;;;5051448;28;20393;-50
2023/07/27 02:10:35;;;;;;;7.00;4.75;;;14.90;98.60;;;;;;5052875;28;20508;-49
2023/07/27 02:13:38;;;;;;;6.10;4.72;;;14.80;99.40;;;;;;5052694;28;20370;-50
2023/07/27 02:16:45;;;;;;;4.45;4.03;;;14.80;99.30;;;;;;5052729;28;20473;-48
2023/07/27 02:19:34;;;;;;;5.65;4.55;;;14.80;99.50;;;;;;5053534;28;20021;-48
2023/07/27 02:22:21;;;;;;;6.55;4.72;;;14.80;99.40;;;;;;5052785;28;20040;-53
2023/07/27 02:25:08;;;;;;;5.05;4.55;;;14.80;99.30;;;;;;5052596;28;20025;-51
2023/07/27 02:27:54;;;;;;;6.38;5.53;;;14.90;99.40;;;;;;5051001;28;20037;-52
2023/07/27 02:30:40;;;;;;;6.28;5.60;;;14.90;99.30;;;;;;5051600;28;20413;-50
2023/07/27 02:33:26;;;;;;;5.47;4.90;;;15.00;99.30;;;;;;5051278;28;20440;-49
2023/07/27 02:36:13;;;;;;;6.85;4.90;;;14.90;99.10;;;;;;5051645;28;20072;-45
2023/07/27 02:38:58;;;;;;;6.20;5.00;;;14.90;99.70;;;;;;5051042;28;20061;-49
2023/07/27 02:41:44;;;;;;;6.55;4.72;;;14.90;99.40;;;;;;5051268;28;20467;-45
2023/07/27 02:44:30;;;;;;;7.03;4.78;;;14.80;99.50;;;;;;5051212;28;20024;-49
2023/07/27 02:47:16;;;;;;;5.90;4.95;;;14.80;99.70;;;;;;5051428;28;20048;-52
2023/07/27 02:50:02;;;;;;;5.97;4.68;;;14.90;99.80;;;;;;5037260;28;20029;-49
2023/07/27 02:52:48;;;;;;;6.32;5.03;;;14.80;99.80;;;;;;5050931;28;20386;-52
2023/07/27 02:55:34;;;;;;;5.45;4.93;;;14.80;99.90;;;;;;5050984;28;20029;-53
2023/07/27 02:58:20;;;;;;;5.45;4.80;;;14.80;99.90;;;;;;5052023;28;20496;-52
2023/07/27 03:01:06;;;;;;;6.47;4.55;;;14.90;99.90;;;;;;5053436;28;20040;-53
2023/07/27 03:03:52;;;;;;;6.20;4.63;;;14.90;99.90;;;;;;5051463;28;20429;-51
2023/07/27 03:06:39;;;;;;;5.90;4.95;;;14.90;99.90;;;;;;5049584;28;20117;-46
2023/07/27 03:09:25;;;;;;;5.57;4.47;;;14.90;99.90;;;;;;5051432;28;20029;-47
2023/07/27 03:12:12;;;;;;;4.75;4.32;;;14.90;99.90;;;;;;5036940;28;20029;-46
2023/07/27 03:14:58;;;;;;;4.90;4.40;;;14.90;99.90;;;;;;5050781;28;20057;-49
2023/07/27 03:17:44;;;;;;;5.82;4.63;;;15.00;99.90;;;;;;5051284;28;20502;-47
2023/07/27 03:20:36;;;;;;;5.60;4.57;;;14.90;99.90;;;;;;5050544;28;20044;-47
2023/07/27 03:23:22;;;;;;;6.55;4.80;;;14.90;99.90;;;;;;5036988;28;20104;-51
2023/07/27 03:26:12;;;;;;;5.65;4.45;;;14.90;99.90;;;;;;5050384;28;20033;-51
2023/07/27 03:28:58;;;;;;;5.47;4.70;;;15.00;99.90;;;;;;5051759;28;20084;-47
2023/07/27 03:31:44;;;;;;;8.10;4.50;;;15.00;99.90;;;;;;5050621;28;20486;-46
2023/07/27 03:34:29;;;;;;;5.00;4.40;;;15.00;99.90;;;;;;5051649;28;20030;-47
2023/07/27 03:37:15;;;;;;;4.95;4.45;;;14.90;99.90;;;;;;5051704;28;20057;-52
2023/07/27 03:40:02;;;;;;;5.07;4.57;;;15.00;99.90;;;;;;5050839;28;20017;-49
2023/07/27 03:42:48;;;;;;;7.20;5.18;;;15.00;99.90;;;;;;5050961;28;20171;-49
2023/07/27 03:45:34;;;;;;;5.50;5.00;;;14.90;99.90;;;;;;5051797;28;20520;-49
2023/07/27 03:48:20;;;;;;;5.57;4.72;;;14.90;99.90;;;;;;5049913;28;20493;-52
2023/07/27 03:51:05;;;;;;;6.13;4.47;;;14.90;99.90;;;;;;5050530;28;20497;-47
2023/07/27 03:53:51;;;;;;;6.68;4.53;;;15.00;99.90;;;;;;5050141;28;20040;-49
2023/07/27 03:56:37;;;;;;;6.05;4.65;;;15.00;99.90;;;;;;5051358;28;20057;-48
2023/07/27 03:59:23;;;;;;;6.43;5.05;;;15.10;99.90;;;;;;5051009;28;20025;-52
2023/07/27 04:02:09;;;;;;;6.07;4.55;;;15.10;99.90;;;;;;5050668;28;20162;-44
2023/07/27 04:04:55;;;;;;;6.28;4.75;;;15.20;99.90;;;;;;5051151;28;20025;-45
2023/07/27 04:07:41;;;;;;;7.03;4.85;;;15.30;99.90;;;;;;5036557;28;20045;-49
2023/07/27 04:10:29;;;;;;;6.35;4.75;;;15.10;99.90;;;;;;5050970;28;20032;-47
2023/07/27 04:13:15;;;;;;;5.90;4.88;;;15.10;99.90;;;;;;5051550;28;20025;-53
2023/07/27 04:16:01;;;;;;;5.78;4.68;;;15.10;99.90;;;;;;5050781;28;20075;-49
2023/07/27 04:18:47;;;;;;;5.43;4.93;;;15.10;99.90;;;;;;5052792;28;20033;-48
2023/07/27 04:21:33;;;;;;;6.78;5.05;;;15.10;99.90;;;;;;5040137;28;20079;-51
2023/07/27 04:24:19;;;;;;;5.03;4.50;;;15.20;99.90;;;;;;5054954;28;20029;-50
2023/07/27 04:27:05;;;;;;;5.45;4.85;;;15.20;99.90;;;;;;5039621;28;20025;-51
2023/07/27 04:29:51;;;;;;;5.93;5.20;;;15.20;99.90;;;;;;5054357;28;20098;-51
2023/07/27 04:32:37;;;;;;;6.07;4.90;;;15.20;99.90;;;;;;5053799;28;20075;-45
2023/07/27 04:35:23;;;;;;;6.07;5.07;;;15.30;99.90;;;;;;5053426;28;20052;-46
2023/07/27 04:38:09;;;;;;;7.38;5.07;;;15.30;99.90;;;;;;5052992;28;20489;-48
2023/07/27 04:40:55;;;;;;;5.82;4.65;;;15.30;99.90;;;;;;5053768;28;20033;-55
2023/07/27 04:43:41;;;;;;;6.50;5.00;;;15.30;99.90;;;;;;5053413;28;20044;-53
2023/07/27 04:46:27;;;;;;;6.82;5.07;;;15.40;99.90;;;;;;5052889;28;20036;-52
2023/07/27 04:49:13;;;;;;;8.15;5.53;;;15.30;99.90;;;;;;5053375;28;20107;-52
2023/07/27 04:51:58;;;;;;;7.85;5.35;;;15.40;99.90;;;;;;5053861;28;20737;-49
2023/07/27 04:54:44;;;;;;;6.53;5.68;;;15.40;99.90;;;;;;5053350;28;20054;-47
2023/07/27 04:57:30;;;;;;;9.23;8.05;;;15.40;99.90;;;;;;5052671;28;20021;-47
2023/07/27 05:00:16;;;;;;;10.73;9.05;;;15.50;99.90;;;;;;5052947;28;20025;-46
2023/07/27 05:03:02;;;;;;;8.80;5.75;;;15.50;99.90;;;;;;5053544;28;20516;-45
2023/07/27 05:05:48;;;;;;;6.93;5.95;;;15.60;99.90;;;;;;5039546;28;20065;-50
2023/07/27 05:08:34;;;;;;;5.90;5.20;;;15.60;99.90;;;;;;5038658;28;20032;-50
2023/07/27 05:11:20;;;;;;;6.30;5.70;;;15.60;99.90;;;;;;5053674;28;20025;-52
2023/07/27 05:14:06;;;;;;;8.02;5.85;;;15.60;99.90;;;;;;5053696;28;20033;-49
2023/07/27 05:16:52;;;;;;;11.73;8.82;;;15.70;99.90;;;;;;5053686;28;20025;-49
2023/07/27 05:19:38;;;;;;;8.02;6.25;;;15.70;99.90;;;;;;5052624;28;20038;-52
2023/07/27 05:22:24;;;;;;;10.20;6.45;;;15.80;99.90;;;;;;5052723;28;20349;-51
2023/07/27 05:25:10;;;;;;;8.63;5.50;;;15.80;99.90;;;;;;5038708;28;20037;-50
2023/07/27 05:27:56;;;;;;;6.00;5.40;;;15.90;99.90;;;;;;5053119;28;20081;-48
2023/07/27 05:30:42;;;;;;;6.70;5.13;;;16.00;99.90;;;;;;5051574;28;20024;-50
2023/07/27 05:33:28;;;;;;;8.75;6.07;;;16.00;99.90;;;;;;5052937;28;20075;-50
2023/07/27 05:36:14;;;;;;;14.02;6.00;;;16.00;99.90;;;;;;5051971;28;20061;-55
2023/07/27 05:39:00;;;;;;;8.88;5.22;;;16.10;99.90;;;;;;5052107;28;20029;-52
2023/07/27 05:41:46;;;;;;;11.88;5.38;;;16.10;99.90;;;;;;5052793;28;20064;-49
2023/07/27 05:44:32;;;;;;;12.90;7.35;;;16.20;99.90;;;;;;5052014;28;20026;-48
2023/07/27 05:47:18;;;;;;;10.27;6.13;;;16.20;99.90;;;;;;5052819;28;20029;-49
2023/07/27 05:50:06;;;;;;;13.98;6.45;;;16.30;99.90;;;;;;5051888;28;20029;-53
2023/07/27 05:52:52;;;;;;;15.32;6.97;;;16.40;99.90;;;;;;5052547;28;20029;-50
2023/07/27 05:55:38;;;;;;;9.65;6.97;;;16.50;99.90;;;;;;5052077;28;20100;-52
2023/07/27 05:58:24;;;;;;;11.57;7.13;;;16.50;99.90;;;;;;5052743;28;20029;-47
2023/07/27 06:01:10;;;;;;;9.25;7.22;;;16.60;99.90;;;;;;5052320;28;20032;-55
2023/07/27 06:03:56;;;;;;;9.88;7.50;;;16.60;99.90;;;;;;5052193;28;20114;-49
2023/07/27 06:06:45;;;;;;;7.07;6.07;;;16.60;99.90;;;;;;5052789;28;20035;-52
2023/07/27 06:09:31;;;;;;;14.38;8.13;;;16.70;99.90;;;;;;5038332;28;20445;-49
2023/07/27 06:12:18;;;;;;;11.95;6.43;;;16.80;99.90;;;;;;5053416;28;20494;-48
2023/07/27 06:15:05;;;;;;;9.13;5.65;;;16.80;99.90;;;;;;5052369;28;20028;-51
2023/07/27 06:17:51;;;;;;;11.73;6.07;;;16.90;99.90;;;;;;5037591;28;20389;-53
2023/07/27 06:20:37;;;;;;;10.48;5.53;;;16.90;99.90;;;;;;5051807;28;20028;-50
2023/07/27 06:23:23;;;;;;;7.72;5.63;;;16.90;99.90;;;;;;5051898;28;20103;-49
2023/07/27 06:26:09;;;;;;;15.57;6.22;;;17.00;99.90;;;;;;5051393;28;20032;-53
2023/07/27 06:28:55;;;;;;;16.80;6.82;;;17.00;99.90;;;;;;5051207;28;20041;-53
2023/07/27 06:31:41;;;;;;;13.05;7.25;;;17.10;99.90;;;;;;5051577;28;20108;-49
2023/07/27 06:34:27;;;;;;;10.73;8.82;;;17.10;99.90;;;;;;5053930;28;20505;-50
2023/07/27 06:37:13;;;;;;;9.73;7.57;;;17.10;99.90;;;;;;5069231;28;20473;-54
2023/07/27 06:40:00;;;;;;;11.95;6.10;;;17.20;99.90;;;;;;5069651;28;20029;-51
2023/07/27 06:42:46;;;;;;;12.95;6.05;;;17.30;99.90;;;;;;5068689;28;20048;-49
2023/07/27 06:45:33;;;;;;;9.90;5.45;;;17.40;99.90;;;;;;5072517;28;20515;-48
2023/07/27 06:48:19;;;;;;;16.10;6.10;;;17.50;99.80;;;;;;5071825;28;20129;-46
2023/07/27 06:51:05;;;;;;;18.90;5.75;;;17.60;99.80;;;;;;5071615;28;20036;-47
2023/07/27 06:53:54;;;;;;;12.10;5.15;;;17.70;99.70;;;;;;5069071;28;20024;-47
2023/07/27 06:56:40;;;;;;;14.95;6.00;;;17.90;99.30;;;;;;5069086;28;20409;-49
2023/07/27 06:59:26;;;;;;;8.35;6.30;;;18.00;99.20;;;;;;5069066;28;20378;-49
2023/07/27 07:02:12;;;;;;;10.00;6.18;;;18.10;99.00;;;;;;5070639;28;20044;-52
2023/07/27 07:04:58;;;;;;;7.38;4.78;;;18.20;98.40;;;;;;5055585;28;20037;-54
2023/07/27 07:07:44;;;;;;;9.75;5.85;;;18.40;98.40;;;;;;5070126;28;20036;-50
2023/07/27 07:10:30;;;;;;;6.53;4.75;;;18.50;98.10;;;;;;5068219;28;20404;-48
2023/07/27 07:13:16;;;;;;;13.15;10.20;;;18.60;98.30;;;;;;5060146;28;20397;-54
2023/07/27 07:16:02;;;;;;;9.80;6.55;;;18.70;97.90;;;;;;5069272;28;20099;-54
2023/07/27 07:18:48;;;;;;;5.32;4.82;;;18.60;98.30;;;;;;5055864;28;20453;-54
2023/07/27 07:21:33;;;;;;;8.57;5.20;;;18.60;98.00;;;;;;5066207;28;20500;-53
2023/07/27 07:24:19;;;;;;;9.40;4.80;;;18.50;97.80;;;;;;5070711;28;20032;-51
2023/07/27 07:27:06;;;;;;;8.65;5.15;;;18.70;97.80;;;;;;5068673;28;20074;-50
2023/07/27 07:29:52;;;;;;;11.95;4.40;;;18.80;97.40;;;;;;5071279;28;20041;-51
2023/07/27 07:32:37;;;;;;;8.25;4.25;;;18.80;97.30;;;;;;5069564;28;20024;-54
2023/07/27 07:35:23;;;;;;;9.00;5.00;;;18.90;97.30;;;;;;5068779;28;20594;-48
2023/07/27 07:38:09;;;;;;;5.07;4.30;;;18.80;97.40;;;;;;5069219;28;20697;-52
2023/07/27 07:40:55;;;;;;;12.73;4.63;;;19.00;97.30;;;;;;5070755;28;20090;-50
2023/07/27 07:43:41;;;;;;;7.30;4.32;;;19.10;96.80;;;;;;5060951;28;20039;-50
2023/07/27 07:46:27;;;;;;;9.35;4.28;;;19.10;96.50;;;;;;5070378;28;20024;-52
2023/07/27 07:49:13;;;;;;;6.03;4.30;;;19.10;96.60;;;;;;5042390;28;20036;-54
2023/07/27 07:51:59;;;;;;;5.05;4.38;;;19.10;97.00;;;;;;5074041;28;20503;-47
2023/07/27 07:54:45;;;;;;;9.88;5.68;;;19.10;96.10;;;;;;5073443;28;20499;-44
2023/07/27 07:57:34;;;;;;;8.10;4.43;;;19.10;96.50;;;;;;5063846;28;20531;-46
2023/07/27 08:00:20;;;;;;;6.57;4.65;;;19.10;96.60;;;;;;5059251;28;20036;-46
2023/07/27 08:03:06;;;;;;;7.43;4.50;;;19.30;96.20;;;;;;5046485;28;20720;-47
2023/07/27 08:05:52;;;;;;;5.50;4.38;;;19.40;96.10;;;;;;5071943;28;20542;-49
2023/07/27 08:08:38;;;;;;;8.05;4.28;;;19.50;95.60;;;;;;5053711;28;20097;-52
2023/07/27 08:11:24;;;;;;;4.60;4.10;;;19.60;96.00;;;;;;5056171;28;20497;-48
2023/07/27 08:14:11;;;;;;;5.22;4.07;;;19.60;95.60;;;;;;5058743;28;20149;-44
2023/07/27 08:16:58;;;;;;;6.22;4.50;;;19.70;95.40;;;;;;5071870;28;20028;-50
2023/07/27 08:19:43;;;;;;;8.60;5.07;;;19.80;95.50;;;;;;5073860;28;20136;-48
2023/07/27 08:22:29;;;;;;;6.03;4.13;;;19.70;95.30;;;;;;5065040;28;20028;-49
2023/07/27 08:25:15;;;;;;;6.82;4.47;;;19.70;95.40;;;;;;5074295;28;20056;-47
2023/07/27 08:28:01;;;;;;;5.80;4.47;;;19.70;95.40;;;;;;5081675;28;20135;-51
2023/07/27 08:30:48;;;;;;;6.78;4.22;;;19.80;95.40;;;;;;5066653;28;20056;-52
2023/07/27 08:33:34;;;;;;;6.03;4.40;;;19.90;95.00;;;;;;5072540;28;20048;-47
2023/07/27 08:36:20;;;;;;;6.03;3.72;;;19.90;95.10;;;;;;5054048;28;20029;-53
2023/07/27 08:39:06;;;;;;;8.45;4.60;;;20.10;95.20;;;;;;5065193;28;20024;-55
2023/07/27 08:41:52;;;;;;;9.18;4.75;;;20.20;95.00;;;;;;5071833;28;20021;-54
2023/07/27 08:44:38;;;;;;;8.10;4.68;;;20.30;94.80;;;;;;5076925;28;20037;-55
2023/07/27 08:47:26;;;;;;;7.45;4.25;;;20.30;94.80;;;;;;5066180;28;20063;-53
2023/07/27 08:50:13;;;;;;;6.90;4.22;;;20.10;95.00;;;;;;5060231;28;20111;-46
2023/07/27 08:52:59;;;;;;;4.72;3.88;;;20.20;94.80;;;;;;5071665;28;20034;-46
2023/07/27 08:55:45;;;;;;;7.55;4.40;;;20.20;94.60;;;;;;5073633;28;20170;-50
2023/07/27 08:58:31;;;;;;;9.77;4.55;;;20.20;94.70;;;;;;5057194;28;20032;-46
2023/07/27 09:01:18;;;;;;;6.75;4.40;;;20.20;94.90;;;;;;5070436;28;20023;-53
2023/07/27 09:04:05;;;;;;;5.45;4.53;;;20.00;94.60;;;;;;5081266;28;20024;-49
2023/07/27 09:06:51;;;;;;;6.85;5.00;;;20.00;95.00;;;;;;5078393;28;20071;-52
2023/07/27 09:09:37;;;;;;;7.13;4.13;;;20.00;94.70;;;;;;5066594;28;20402;-49
2023/07/27 09:12:24;;;;;;;9.98;4.57;;;19.80;94.20;;;;;;5069180;28;20025;-49
2023/07/27 09:15:14;;;;;;;8.02;4.22;;;19.80;94.40;;;;;;5056378;28;20033;-51
2023/07/27 09:18:02;;;;;;;6.25;4.18;;;19.80;94.70;;;;;;5072330;28;20020;-49
2023/07/27 09:20:48;;;;;;;9.65;4.53;;;19.90;94.80;;;;;;5071067;28;20040;-54
2023/07/27 09:23:35;;;;;;;16.48;5.68;;;19.80;94.70;;;;;;5070929;28;20035;-50
2023/07/27 09:26:25;;;;;;;8.50;4.60;;;19.80;95.00;;;;;;5038057;28;20056;-49
2023/07/27 09:29:15;;;;;;;9.15;5.03;;;19.60;95.90;;;;;;5051685;28;20044;-48
2023/07/27 09:32:01;;;;;;;10.77;5.07;;;19.40;96.50;;;;;;5052907;28;20021;-46
2023/07/27 09:34:54;;;;;;;6.97;4.68;;;19.30;97.50;;;;;;5039115;28;20485;-48
2023/07/27 09:37:45;;;;;;;6.38;4.82;;;19.20;97.90;;;;;;5052555;28;20033;-52
2023/07/27 09:40:33;;;;;;;7.90;4.85;;;19.00;98.40;;;;;;5061340;28;20066;-49
2023/07/27 09:43:25;;;;;;;7.85;5.25;;;19.00;98.60;;;;;;5073051;28;20112;-49
2023/07/27 09:46:11;;;;;;;8.07;4.72;;;19.00;98.70;;;;;;5072788;28;20089;-47
2023/07/27 09:48:58;;;;;;;5.85;4.80;;;19.10;99.20;;;;;;5074025;28;20032;-49
2023/07/27 09:51:46;;;;;;;12.23;5.00;;;19.10;99.40;;;;;;5072903;28;20024;-52
2023/07/27 09:54:33;;;;;;;6.72;4.68;;;19.20;99.30;;;;;;5071749;28;20024;-53
2023/07/27 09:57:20;;;;;;;15.50;6.32;;;19.30;99.30;;;;;;5071544;28;20032;-54
2023/07/27 10:00:08;;;;;;;8.32;5.50;;;19.40;99.70;;;;;;5071197;28;20142;-53
2023/07/27 10:02:54;;;;;;;10.77;5.45;;;19.40;99.50;;;;;;5071279;28;20111;-49
2023/07/27 10:05:41;;;;;;;11.38;5.70;;;19.50;99.50;;;;;;5072218;28;20114;-51
2023/07/27 10:08:27;;;;;;;13.18;8.57;;;19.60;99.80;;;;;;5065025;28;20528;-53
2023/07/27 10:11:13;;;;;;;9.27;7.03;;;19.50;99.90;;;;;;5051911;28;20082;-50
2023/07/27 10:14:29;;;;;;;7.93;5.25;;;19.50;99.90;;;;;;5054659;28;20033;-53
2023/07/27 10:17:15;;;;;;;8.70;5.95;;;19.50;99.90;;;;;;5064511;28;20039;-50
2023/07/27 10:20:20;;;;;;;8.70;5.50;;;19.50;99.90;;;;;;5072098;28;20032;-54
2023/07/27 10:23:31;;;;;;;6.18;5.45;;;19.60;99.90;;;;;;5084994;28;20477;-52
2023/07/27 10:26:17;;;;;;;6.82;5.07;;;19.70;99.90;;;;;;5071478;28;20055;-53
2023/07/27 10:29:14;;;;;;;12.05;5.72;;;19.80;99.90;;;;;;5071791;28;20039;-49
2023/07/27 10:32:06;;;;;;;9.27;6.28;;;20.00;99.90;;;;;;5069374;28;20096;-49
2023/07/27 10:34:52;;;;;;;10.57;6.13;;;20.10;99.90;;;;;;5071688;28;20404;-53
2023/07/27 10:37:54;;;;;;;7.63;5.95;;;20.10;99.90;;;;;;5071144;28;20477;-48
2023/07/27 10:40:43;;;;;;;11.05;6.47;;;19.90;99.90;;;;;;5071768;28;20059;-52
2023/07/27 10:43:29;;;;;;;9.60;5.90;;;19.60;99.90;;;;;;5069180;28;20108;-53
2023/07/27 10:46:23;;;;;;;7.90;5.75;;;19.40;99.90;;;;;;5054853;28;20402;-54
2023/07/27 10:49:15;;;;;;;10.90;6.93;;;19.40;99.90;;;;;;5063536;28;20524;-53
2023/07/27 10:52:01;;;;;;;10.40;9.00;;;19.30;99.90;;;;;;5062127;28;20267;-54
2023/07/27 10:54:48;;;;;;;7.55;5.85;;;19.10;99.90;;;;;;5064823;28;20393;-52
2023/07/27 10:57:35;;;;;;;10.40;8.25;;;18.90;99.90;;;;;;5058712;28;20029;-53
2023/07/27 11:00:21;;;;;;;6.15;5.50;;;18.70;99.90;;;;;;5063693;28;20021;-50
2023/07/27 11:03:08;;;;;;;8.45;5.65;;;18.50;99.90;;;;;;5061254;28;20025;-47
2023/07/27 11:06:02;;;;;;;5.68;4.70;;;18.50;99.90;;;;;;5058440;28;20029;-50
2023/07/27 11:08:48;;;;;;;8.50;6.05;;;18.40;99.90;;;;;;5051355;28;20025;-51
2023/07/27 11:11:34;;;;;;;8.35;5.65;;;18.20;99.90;;;;;;5064049;28;20423;-53
2023/07/27 11:14:20;;;;;;;8.05;6.10;;;18.10;99.90;;;;;;5070526;28;20095;-53
2023/07/27 11:17:07;;;;;;;8.85;6.40;;;18.10;99.90;;;;;;5071112;28;20644;-54
2023/07/27 11:19:53;;;;;;;8.23;6.20;;;18.10;99.90;;;;;;5068944;28;20051;-55
2023/07/27 11:22:40;;;;;;;8.73;5.80;;;18.00;99.90;;;;;;5084293;28;20024;-56
2023/07/27 11:25:30;;;;;;;8.43;6.10;;;17.90;99.90;;;;;;5071318;28;20496;-54
2023/07/27 11:28:16;;;;;;;12.88;10.82;;;17.90;99.90;;;;;;5072709;28;20127;-55
2023/07/27 11:31:05;;;;;;;8.73;6.80;;;17.80;99.90;;;;;;5074804;28;20028;-57
2023/07/27 11:33:59;;;;;;;8.77;6.82;;;17.70;99.90;;;;;;5074202;28;20025;-57
2023/07/27 11:36:57;;;;;;;8.65;6.20;;;17.70;99.90;;;;;;5074975;28;20037;-56
2023/07/27 11:39:43;;;;;;;10.35;6.70;;;17.70;99.90;;;;;;5075086;28;20086;-57
2023/07/27 11:42:36;;;;;;;7.18;6.40;;;17.70;99.90;;;;;;5075172;28;20037;-56
2023/07/27 11:45:22;;;;;;;10.50;6.10;;;17.80;99.90;;;;;;5059074;28;20029;-56
2023/07/27 11:48:09;;;;;;;7.43;5.72;;;17.70;99.90;;;;;;5074480;28;20047;-55
2023/07/27 11:50:57;;;;;;;8.48;7.10;;;17.60;99.90;;;;;;5055405;28;20037;-65
2023/07/27 11:53:46;;;;;;;8.30;6.65;;;17.60;99.90;;;;;;5067837;28;20039;-56
2023/07/27 11:56:37;;;;;;;9.18;6.07;;;17.60;99.90;;;;;;5073905;28;20101;-54
2023/07/27 11:59:23;;;;;;;9.73;6.80;;;17.50;99.90;;;;;;5074610;28;20477;-55
2023/07/27 12:02:09;;;;;;;7.53;5.97;;;17.60;99.90;;;;;;5074750;28;20111;-55
2023/07/27 12:04:55;;;;;;;7.25;5.93;;;17.60;99.90;;;;;;5074375;28;20035;-52
2023/07/27 12:07:42;;;;;;;7.45;6.55;;;17.60;99.90;;;;;;5073112;28;20031;-51
2023/07/27 12:10:29;;;;;;;8.90;6.22;;;17.60;99.90;;;;;;5074170;28;20489;-55
2023/07/27 12:13:20;;;;;;;11.25;8.00;;;17.70;99.90;;;;;;5073569;28;20111;-56
2023/07/27 12:16:08;;;;;;;8.13;7.18;;;17.80;99.90;;;;;;5074364;28;20021;-52
2023/07/27 12:18:54;;;;;;;65.80;54.40;;;17.90;99.90;;;;;;5074467;28;20032;-55
2023/07/27 12:21:40;;;;;;;10.82;8.65;;;17.90;99.90;;;;;;5073197;28;20083;-55
2023/07/27 12:24:26;;;;;;;8.63;7.45;;;17.90;99.90;;;;;;5074382;28;20122;-57
2023/07/27 12:27:12;;;;;;;18.17;10.98;;;18.00;99.90;;;;;;5074155;28;20033;-54
2023/07/27 12:29:58;;;;;;;13.02;10.35;;;18.10;99.90;;;;;;5074282;28;20570;-58
2023/07/27 12:32:44;;;;;;;10.43;8.48;;;18.10;99.90;;;;;;5059551;28;20059;-52
2023/07/27 12:35:30;;;;;;;12.77;8.00;;;18.10;99.90;;;;;;5074349;28;20162;-57
2023/07/27 12:38:16;;;;;;;10.90;8.02;;;18.00;99.90;;;;;;5073711;28;20104;-55
2023/07/27 12:41:02;;;;;;;14.07;9.70;;;17.80;99.90;;;;;;5074111;28;20524;-52
2023/07/27 12:43:48;;;;;;;11.98;10.40;;;17.90;99.90;;;;;;5074038;28;20028;-56
2023/07/27 12:46:33;;;;;;;11.32;9.57;;;18.00;99.90;;;;;;5074155;28;20036;-55
2023/07/27 12:49:19;;;;;;;10.70;9.32;;;17.90;99.90;;;;;;5073882;28;20111;-58
2023/07/27 12:52:06;;;;;;;10.20;8.25;;;17.90;99.90;;;;;;5073142;28;20107;-55
2023/07/27 12:54:52;;;;;;;11.13;8.57;;;17.90;99.90;;;;;;5073189;28;20550;-52
2023/07/27 12:57:41;;;;;;;10.57;9.02;;;18.10;99.90;;;;;;5073477;28;20036;-53
2023/07/27 13:00:27;;;;;;;13.15;9.65;;;18.00;99.90;;;;;;5073901;28;20513;-53
2023/07/27 13:03:12;;;;;;;12.95;9.88;;;18.00;99.90;;;;;;5073833;28;20060;-54
2023/07/27 13:06:00;;;;;;;8.85;7.40;;;18.10;99.90;;;;;;5073179;28;20055;-53
2023/07/27 13:08:46;;;;;;;11.57;9.68;;;18.00;99.90;;;;;;5073736;28;20090;-56
2023/07/27 13:11:32;;;;;;;8.98;8.05;;;18.00;99.90;;;;;;5072498;28;20400;-56
2023/07/27 13:14:19;;;;;;;8.80;7.80;;;18.00;99.90;;;;;;5072793;28;20055;-54
2023/07/27 13:17:05;;;;;;;8.52;7.63;;;17.90;99.90;;;;;;5073283;28;20025;-56
2023/07/27 13:19:51;;;;;;;8.80;7.80;;;17.90;99.90;;;;;;5058519;28;20021;-51
2023/07/27 13:22:38;;;;;;;9.60;7.78;;;17.80;99.90;;;;;;5053380;28;20068;-52
2023/07/27 13:25:24;;;;;;;10.65;8.38;;;17.80;99.90;;;;;;5039327;28;20116;-51
2023/07/27 13:28:09;;;;;;;10.63;8.18;;;17.80;99.90;;;;;;5052202;28;20044;-53
2023/07/27 13:30:55;;;;;;;9.60;8.60;;;17.80;99.90;;;;;;5072777;28;20114;-53
2023/07/27 13:33:41;;;;;;;9.32;8.25;;;17.80;99.90;;;;;;5073090;28;20105;-56
2023/07/27 13:36:27;;;;;;;10.05;9.05;;;17.80;99.90;;;;;;5072824;28;20356;-54
2023/07/27 13:39:13;;;;;;;10.38;9.30;;;17.80;99.90;;;;;;5072978;28;20132;-51
2023/07/27 13:41:59;;;;;;;9.55;8.63;;;17.80;99.90;;;;;;5073001;28;20389;-49
2023/07/27 13:44:45;;;;;;;11.05;9.95;;;17.80;99.90;;;;;;5073076;28;20104;-55
2023/07/27 13:47:31;;;;;;;12.13;9.77;;;17.80;99.90;;;;;;5071216;28;20481;-53
2023/07/27 13:50:17;;;;;;;10.45;8.63;;;17.70;99.90;;;;;;5071031;28;20028;-55
2023/07/27 13:53:04;;;;;;;10.52;8.68;;;17.60;99.90;;;;;;5070364;28;20060;-55
2023/07/27 13:55:50;;;;;;;9.57;8.57;;;17.70;99.90;;;;;;5071672;28;20025;-54
2023/07/27 13:58:36;;;;;;;10.32;9.23;;;17.70;99.90;;;;;;5071475;28;20032;-58
2023/07/27 14:01:23;;;;;;;10.55;9.45;;;17.70;99.90;;;;;;5071356;28;20032;-58
2023/07/27 14:04:08;;;;;;;10.40;9.35;;;17.70;99.90;;;;;;5072365;28;20048;-56
2023/07/27 14:06:54;;;;;;;10.10;9.10;;;17.80;99.90;;;;;;5070341;28;20032;-55
2023/07/27 14:09:40;;;;;;;9.48;7.95;;;17.70;99.90;;;;;;5057942;28;20036;-57
2023/07/27 14:12:26;;;;;;;11.95;10.65;;;17.80;99.90;;;;;;5069764;28;20036;-55
2023/07/27 14:15:12;;;;;;;11.68;10.20;;;17.80;99.90;;;;;;5071410;28;20078;-51
2023/07/27 14:18:01;;;;;;;12.52;9.05;;;17.80;99.90;;;;;;5073170;28;20441;-53
2023/07/27 14:20:46;;;;;;;10.80;8.43;;;17.80;99.90;;;;;;5071138;28;20045;-48
2023/07/27 14:23:32;;;;;;;11.07;9.98;;;17.80;99.90;;;;;;5072133;28;20033;-54
2023/07/27 14:26:18;;;;;;;12.02;10.05;;;17.80;99.90;;;;;;5071818;28;20086;-53